createdAt,value
2023-03-21T00:00:34.980Z,1.80
2023-03-21T00:03:38.104Z,1.90
2023-03-21T00:06:40.895Z,1.90
2023-03-21T00:09:43.807Z,1.60
2023-03-21T00:12:50.318Z,1.57
2023-03-21T00:16:06.032Z,1.83
2023-03-21T00:19:19.312Z,1.70
2023-03-21T00:22:22.129Z,1.67
2023-03-21T00:25:24.862Z,1.67
2023-03-21T00:28:28.135Z,1.53
2023-03-21T00:31:32.336Z,1.80
2023-03-21T00:34:42.991Z,1.63
2023-03-21T00:37:52.020Z,1.50
2023-03-21T00:40:56.881Z,1.60
2023-03-21T00:43:59.864Z,1.77
2023-03-21T00:47:07.750Z,1.67
2023-03-21T00:50:12.836Z,1.80
2023-03-21T00:53:17.036Z,1.93
2023-03-21T00:56:19.957Z,1.70
2023-03-21T00:59:22.656Z,1.30
2023-03-21T01:02:27.125Z,2.00
2023-03-21T01:05:45.501Z,1.50
2023-03-21T01:08:52.986Z,1.80
2023-03-21T01:11:56.192Z,1.43
2023-03-21T01:14:58.960Z,1.70
2023-03-21T01:18:03.606Z,2.00
2023-03-21T01:21:09.825Z,1.60
2023-03-21T01:24:12.649Z,1.50
2023-03-21T01:27:15.897Z,1.50
2023-03-21T01:30:22.850Z,1.40
2023-03-21T01:37:51.664Z,1.73
2023-03-21T01:40:54.724Z,1.45
2023-03-21T01:43:58.075Z,2.15
2023-03-21T01:47:10.973Z,2.00
2023-03-21T01:50:15.135Z,1.90
2023-03-21T01:53:21.871Z,2.00
2023-03-21T01:56:27.780Z,2.30
2023-03-21T01:59:37.671Z,2.38
2023-03-21T02:02:58.162Z,2.13
2023-03-21T02:06:12.438Z,2.70
2023-03-21T02:09:20.616Z,3.13
2023-03-21T02:12:23.709Z,2.47
2023-03-21T02:15:28.129Z,2.67
2023-03-21T02:18:41.000Z,2.97
2023-03-21T02:22:17.489Z,2.57
2023-03-21T02:25:47.852Z,2.35
2023-03-21T02:28:57.034Z,2.00
2023-03-21T02:32:20.403Z,2.30
2023-03-21T02:35:54.120Z,2.33
2023-03-21T02:39:08.591Z,2.17
2023-03-21T02:42:21.327Z,2.27
2023-03-21T02:45:30.221Z,2.50
2023-03-21T02:48:49.821Z,2.00
2023-03-21T02:51:54.793Z,2.13
2023-03-21T02:55:01.153Z,2.30
2023-03-21T02:58:12.757Z,2.08
2023-03-21T03:01:16.079Z,2.10
2023-03-21T03:04:20.703Z,2.10
2023-03-21T03:07:37.631Z,2.30
2023-03-21T03:11:04.524Z,2.10
2023-03-21T03:14:56.431Z,1.90
2023-03-21T03:18:12.318Z,2.13
2023-03-21T03:21:21.759Z,2.20
2023-03-21T03:24:30.191Z,2.40
2023-03-21T03:27:38.708Z,1.95
2023-03-21T03:30:51.280Z,2.47
2023-03-21T03:34:07.114Z,2.17
2023-03-21T03:37:12.587Z,2.13
2023-03-21T03:40:19.333Z,1.73
2023-03-21T03:43:28.964Z,1.85
2023-03-21T03:46:34.247Z,1.90
2023-03-21T03:49:40.391Z,1.70
2023-03-21T03:52:56.043Z,1.73
2023-03-21T03:56:02.719Z,1.80
2023-03-21T03:59:08.307Z,1.90
2023-03-21T04:02:11.587Z,1.80
2023-03-21T04:05:15.180Z,2.10
2023-03-21T04:08:18.235Z,2.20
2023-03-21T04:11:20.956Z,1.80
2023-03-21T04:14:30.626Z,1.90
2023-03-21T04:17:39.472Z,1.73
2023-03-21T04:20:44.915Z,1.90
2023-03-21T04:23:47.907Z,1.70
2023-03-21T04:26:53.960Z,1.63
2023-03-21T04:29:58.171Z,1.97
2023-03-21T04:33:01.231Z,2.00
2023-03-21T04:36:06.541Z,2.10
2023-03-21T04:39:12.548Z,1.80
2023-03-21T04:42:15.682Z,2.20
2023-03-21T04:45:19.812Z,2.00
2023-03-21T04:48:24.765Z,2.37
2023-03-21T04:51:27.392Z,2.27
2023-03-21T04:54:30.010Z,2.17
2023-03-21T04:57:32.652Z,1.87
2023-03-21T05:00:38.384Z,1.60
2023-03-21T05:03:41.543Z,2.10
2023-03-21T05:06:45.166Z,2.13
2023-03-21T05:09:47.794Z,1.90
2023-03-21T05:12:50.391Z,1.87
2023-03-21T05:15:54.702Z,1.90
2023-03-21T05:18:59.028Z,2.20
2023-03-21T05:22:04.485Z,1.87
2023-03-21T05:25:09.008Z,1.93
2023-03-21T05:28:11.616Z,1.67
2023-03-21T05:31:16.621Z,1.67
2023-03-21T05:34:19.266Z,1.97
2023-03-21T05:37:21.962Z,1.60
2023-03-21T05:40:24.665Z,1.70
2023-03-21T05:43:27.593Z,1.83
2023-03-21T05:46:31.651Z,2.03
2023-03-21T05:49:34.368Z,1.63
2023-03-21T05:52:37.052Z,1.67
2023-03-21T05:55:40.684Z,1.83
2023-03-21T05:58:43.552Z,1.80
2023-03-21T06:01:47.583Z,2.10
2023-03-21T06:04:50.314Z,2.33
2023-03-21T06:07:52.941Z,2.03
2023-03-21T06:10:55.601Z,2.67
2023-03-21T06:13:58.314Z,2.40
2023-03-21T06:17:02.314Z,1.90
2023-03-21T06:20:06.929Z,1.87
2023-03-21T06:23:09.715Z,1.87
2023-03-21T06:26:12.417Z,1.50
2023-03-21T06:29:15.116Z,1.70
2023-03-21T06:32:19.122Z,1.67
2023-03-21T06:35:21.751Z,1.77
2023-03-21T06:38:24.931Z,1.63
2023-03-21T06:41:27.620Z,1.60
2023-03-21T06:44:30.427Z,1.80
2023-03-21T06:47:34.469Z,1.53
2023-03-21T06:50:37.225Z,1.57
2023-03-21T06:53:41.469Z,1.90
2023-03-21T06:56:44.132Z,1.70
2023-03-21T06:59:47.550Z,2.13
2023-03-21T07:02:51.866Z,2.00
2023-03-21T07:05:54.579Z,2.50
2023-03-21T07:08:57.982Z,2.20
2023-03-21T07:12:00.715Z,2.13
2023-03-21T07:15:04.879Z,2.63
2023-03-21T07:18:10.368Z,2.28
2023-03-21T07:21:13.457Z,2.17
2023-03-21T07:24:16.094Z,2.03
2023-03-21T07:27:19.759Z,2.08
2023-03-21T07:30:23.075Z,1.80
2023-03-21T07:33:27.474Z,1.77
2023-03-21T07:36:30.643Z,1.90
2023-03-21T07:39:34.888Z,1.40
2023-03-21T07:42:37.661Z,2.05
2023-03-21T07:45:40.863Z,1.42
2023-03-21T07:48:45.096Z,1.98
2023-03-21T07:51:47.737Z,1.50
2023-03-21T07:54:50.428Z,2.03
2023-03-21T07:57:53.311Z,1.70
2023-03-21T08:00:57.277Z,1.70
2023-03-21T08:04:01.216Z,1.90
2023-03-21T08:07:03.966Z,1.65
2023-03-21T08:10:07.912Z,1.73
2023-03-21T08:13:10.845Z,1.40
2023-03-21T08:16:13.529Z,1.58
2023-03-21T08:19:18.748Z,1.52
2023-03-21T08:22:21.610Z,1.20
2023-03-21T08:25:24.272Z,1.42
2023-03-21T08:28:27.060Z,1.70
2023-03-21T08:31:29.746Z,1.50
2023-03-21T08:34:33.742Z,1.50
2023-03-21T08:37:36.570Z,1.58
2023-03-21T08:40:39.371Z,1.67
2023-03-21T08:43:42.267Z,1.67
2023-03-21T08:46:45.097Z,1.67
2023-03-21T08:49:49.439Z,2.00
2023-03-21T08:52:52.134Z,1.60
2023-03-21T08:55:55.876Z,1.58
2023-03-21T08:58:58.931Z,1.45
2023-03-21T09:02:01.644Z,1.73
2023-03-21T09:05:07.646Z,1.75
2023-03-21T09:08:10.318Z,1.63
2023-03-21T09:11:13.075Z,1.70
2023-03-21T09:14:15.915Z,1.55
2023-03-21T09:17:21.127Z,1.50
2023-03-21T09:20:30.763Z,1.60
2023-03-21T09:23:34.096Z,1.67
2023-03-21T09:26:36.942Z,1.50
2023-03-21T09:29:39.547Z,1.58
2023-03-21T09:32:42.633Z,1.60
2023-03-21T09:35:46.789Z,1.60
2023-03-21T09:38:50.790Z,1.17
2023-03-21T09:42:13.159Z,1.38
2023-03-21T09:45:22.719Z,1.15
2023-03-21T09:48:37.678Z,1.42
2023-03-21T09:51:48.741Z,1.27
2023-03-21T09:54:52.195Z,1.50
2023-03-21T09:58:05.769Z,1.10
2023-03-21T10:01:22.322Z,1.02
2023-03-21T10:04:27.661Z,1.48
2023-03-21T10:07:41.763Z,1.42
2023-03-21T10:10:48.585Z,1.08
2023-03-21T10:13:56.402Z,1.60
2023-03-21T10:17:01.756Z,1.50
2023-03-21T10:20:15.422Z,1.33
2023-03-21T10:23:21.777Z,1.23
2023-03-21T10:26:32.448Z,1.27
2023-03-21T10:29:42.229Z,1.30
2023-03-21T10:32:44.961Z,1.33
2023-03-21T10:35:51.590Z,1.35
2023-03-21T10:39:01.237Z,1.50
2023-03-21T10:42:05.704Z,1.10
2023-03-21T10:45:16.442Z,1.33
2023-03-21T10:48:20.330Z,1.77
2023-03-21T10:51:28.234Z,1.50
2023-03-21T10:54:33.312Z,1.77
2023-03-21T10:57:38.391Z,1.42
2023-03-21T11:00:43.260Z,1.50
2023-03-21T11:03:48.182Z,1.38
2023-03-21T11:06:54.832Z,1.70
2023-03-21T11:10:00.422Z,1.30
2023-03-21T11:13:07.876Z,1.33
2023-03-21T11:16:13.060Z,1.48
2023-03-21T11:19:18.676Z,1.40
2023-03-21T11:22:23.920Z,1.27
2023-03-21T11:25:33.810Z,1.05
2023-03-21T11:28:41.844Z,1.20
2023-03-21T11:31:44.841Z,1.10
2023-03-21T11:34:49.750Z,0.93
2023-03-21T11:37:53.835Z,1.00
2023-03-21T11:40:59.390Z,0.80
2023-03-21T11:44:04.256Z,1.23
2023-03-21T11:47:07.036Z,1.20
2023-03-21T11:50:19.928Z,0.98
2023-03-21T11:53:32.975Z,1.50
2023-03-21T11:56:39.528Z,1.73
2023-03-21T11:59:53.665Z,1.55
2023-03-21T12:03:41.493Z,1.30
2023-03-21T12:06:55.134Z,1.48
2023-03-21T12:10:10.200Z,1.02
2023-03-21T12:13:31.163Z,0.55
2023-03-21T12:16:50.601Z,0.47
2023-03-21T12:20:23.410Z,0.68
2023-03-21T12:23:39.089Z,0.40
2023-03-21T12:26:49.027Z,0.60
2023-03-21T12:30:12.536Z,0.40
2023-03-21T12:33:29.510Z,0.55
2023-03-21T12:36:44.793Z,0.90
2023-03-21T12:39:49.721Z,0.45
2023-03-21T12:43:04.644Z,0.47
2023-03-21T12:46:14.665Z,0.52
2023-03-21T12:49:25.026Z,0.50
2023-03-21T12:52:31.540Z,0.85
2023-03-21T12:55:36.593Z,1.05
2023-03-21T12:58:49.030Z,0.90
2023-03-21T13:01:55.958Z,1.48
2023-03-21T13:05:06.911Z,0.77
2023-03-21T13:08:15.676Z,0.70
2023-03-21T13:11:22.113Z,1.00
2023-03-21T13:14:29.174Z,0.75
2023-03-21T13:17:37.096Z,0.60
2023-03-21T13:20:46.758Z,0.93
2023-03-21T13:24:04.095Z,0.80
2023-03-21T13:27:09.051Z,0.82
2023-03-21T13:30:21.612Z,0.88
2023-03-21T13:33:30.155Z,1.30
2023-03-21T13:36:38.019Z,0.82
2023-03-21T13:39:45.404Z,1.10
2023-03-21T13:42:53.519Z,0.93
2023-03-21T13:45:56.266Z,0.60
2023-03-21T13:49:02.147Z,1.23
2023-03-21T13:52:28.056Z,1.52
2023-03-21T13:55:32.385Z,0.90
2023-03-21T13:58:38.839Z,1.02
2023-03-21T14:01:42.340Z,1.50
2023-03-21T14:05:04.263Z,1.08
2023-03-21T14:08:15.629Z,1.08
2023-03-21T14:11:23.620Z,1.20
2023-03-21T14:14:31.004Z,1.33
2023-03-21T14:17:35.786Z,0.90
2023-03-21T14:20:39.461Z,1.02
2023-03-21T14:23:43.566Z,1.13
2023-03-21T14:26:49.343Z,1.20
2023-03-21T14:29:53.323Z,1.15
2023-03-21T14:32:59.177Z,1.40
2023-03-21T14:36:08.755Z,1.15
2023-03-21T14:39:17.725Z,1.48
2023-03-21T14:42:25.944Z,1.10
2023-03-21T14:45:31.031Z,1.10
2023-03-21T14:48:35.654Z,1.27
2023-03-21T14:51:39.048Z,1.00
2023-03-21T14:54:45.315Z,1.05
2023-03-21T14:57:49.450Z,1.40
2023-03-21T15:00:53.549Z,1.13
2023-03-21T15:03:57.467Z,1.40
2023-03-21T15:07:05.173Z,1.13
2023-03-21T15:10:17.842Z,1.50
2023-03-21T15:13:23.430Z,1.45
2023-03-21T15:16:26.125Z,1.38
2023-03-21T15:19:34.716Z,1.40
2023-03-21T15:22:40.668Z,1.40
2023-03-21T15:25:46.368Z,1.38
2023-03-21T15:28:51.353Z,1.33
2023-03-21T15:31:54.593Z,1.20
2023-03-21T15:35:06.886Z,1.40
2023-03-21T15:38:23.944Z,1.25
2023-03-21T15:41:30.824Z,1.30
2023-03-21T15:44:35.230Z,1.80
2023-03-21T15:47:43.602Z,1.65
2023-03-21T15:50:53.153Z,1.67
2023-03-21T15:53:55.879Z,1.45
2023-03-21T15:57:04.467Z,1.67
2023-03-21T16:00:20.278Z,1.40
2023-03-21T16:03:27.189Z,1.42
2023-03-21T16:06:33.459Z,1.52
2023-03-21T16:09:42.677Z,1.58
2023-03-21T16:12:46.833Z,1.65
2023-03-21T16:15:49.746Z,1.10
2023-03-21T16:18:53.167Z,1.63
2023-03-21T16:21:55.906Z,1.42
2023-03-21T16:24:58.683Z,1.48
2023-03-21T16:28:02.736Z,1.33
2023-03-21T16:31:06.078Z,1.77
2023-03-21T16:34:08.912Z,1.42
2023-03-21T16:37:12.246Z,1.38
2023-03-21T16:40:22.890Z,1.73
2023-03-21T16:43:26.963Z,1.50
2023-03-21T16:46:29.791Z,1.70
2023-03-21T16:49:32.746Z,1.80
2023-03-21T16:52:36.065Z,1.63
2023-03-21T16:55:39.223Z,1.30
2023-03-21T16:58:43.364Z,1.58
2023-03-21T17:01:48.297Z,1.38
2023-03-21T17:04:51.498Z,1.85
2023-03-21T17:07:54.417Z,1.77
2023-03-21T17:10:59.103Z,2.00
2023-03-21T17:14:03.351Z,1.58
2023-03-21T17:17:06.108Z,1.70
2023-03-21T17:20:19.534Z,1.65
2023-03-21T17:23:22.234Z,1.85
2023-03-21T17:26:27.430Z,1.75
2023-03-21T17:29:31.632Z,1.40
2023-03-21T17:32:34.304Z,1.40
2023-03-21T17:35:37.085Z,1.08
2023-03-21T17:38:39.802Z,1.23
2023-03-21T17:41:42.502Z,1.00
2023-03-21T17:44:46.610Z,1.33
2023-03-21T17:47:50.236Z,1.20
2023-03-21T17:50:52.958Z,1.20
2023-03-21T17:53:55.603Z,1.10
2023-03-21T17:56:58.333Z,1.00
2023-03-21T18:00:05.316Z,1.30
2023-03-21T18:03:10.454Z,1.42
2023-03-21T18:06:46.194Z,1.20
2023-03-21T18:09:52.449Z,1.42
2023-03-21T18:13:04.235Z,1.40
2023-03-21T18:16:11.439Z,1.52
2023-03-21T18:19:20.753Z,1.58
2023-03-21T18:22:24.832Z,1.50
2023-03-21T18:25:39.647Z,1.27
2023-03-21T18:28:44.615Z,1.40
2023-03-21T18:46:02.759Z,2.38
2023-03-21T20:15:45.982Z,2.50
2023-03-21T20:18:55.556Z,2.65
2023-03-21T20:22:03.041Z,2.90
2023-03-21T20:25:48.422Z,2.80
2023-03-21T20:30:05.396Z,2.92
2023-03-21T20:32:46.974Z,2.35
2023-03-21T20:39:19.023Z,2.13
2023-03-21T20:42:21.689Z,2.00
2023-03-21T20:45:24.331Z,2.70
2023-03-21T20:48:26.990Z,2.08
2023-03-21T20:52:29.460Z,2.17
2023-03-21T20:54:54.921Z,2.20
2023-03-21T20:57:57.609Z,2.47
2023-03-21T21:01:03.936Z,2.35
2023-03-21T21:04:06.965Z,2.50
2023-03-21T21:07:16.289Z,2.67
2023-03-21T21:10:19.065Z,2.80
2023-03-21T21:13:21.803Z,2.25
2023-03-21T21:16:24.520Z,2.60
2023-03-21T21:19:27.531Z,2.30
2023-03-21T21:22:32.481Z,2.30
2023-03-21T21:25:36.124Z,2.67
2023-03-21T21:28:44.084Z,2.00
2023-03-21T21:31:48.717Z,2.30
2023-03-21T21:34:51.437Z,2.38
2023-03-21T21:37:55.429Z,2.13
2023-03-21T21:41:00.644Z,2.58
2023-03-21T21:44:03.467Z,2.08
2023-03-21T21:47:09.471Z,2.38
2023-03-21T21:50:12.498Z,1.90
2023-03-21T21:53:19.058Z,2.10
2023-03-21T21:56:22.623Z,2.25
2023-03-21T21:59:25.355Z,1.85
2023-03-21T22:02:28.059Z,2.38
2023-03-21T22:05:30.747Z,2.10
2023-03-21T22:08:35.153Z,1.90
2023-03-21T22:11:38.003Z,2.00
2023-03-21T22:14:40.936Z,2.22
2023-03-21T22:17:43.641Z,2.00
2023-03-21T22:20:48.536Z,2.10
2023-03-21T22:23:54.028Z,2.05
2023-03-21T22:27:02.450Z,1.95
2023-03-21T22:30:09.107Z,2.10
2023-03-21T22:33:13.291Z,2.25
2023-03-21T22:36:17.206Z,2.53
2023-03-21T22:39:26.722Z,2.00
2023-03-21T22:42:31.662Z,2.30
2023-03-21T22:45:36.619Z,2.72
2023-03-21T22:48:41.775Z,2.20
2023-03-21T22:51:45.411Z,2.03
2023-03-21T22:54:50.414Z,2.20
2023-03-21T22:57:55.271Z,2.08
2023-03-21T23:01:02.563Z,1.88
2023-03-21T23:04:06.144Z,2.22
2023-03-21T23:07:10.206Z,1.50
2023-03-21T23:10:15.064Z,1.70
2023-03-21T23:13:18.798Z,1.80
2023-03-21T23:16:22.832Z,2.40
2023-03-21T23:19:27.762Z,2.10
2023-03-21T23:22:33.027Z,1.73
2023-03-21T23:25:42.332Z,1.95
2023-03-21T23:28:46.466Z,1.58
2023-03-21T23:31:50.687Z,1.60
2023-03-21T23:34:56.167Z,1.50
2023-03-21T23:37:59.785Z,1.58
2023-03-21T23:41:08.520Z,1.53
2023-03-21T23:44:12.009Z,1.80
2023-03-21T23:47:16.095Z,1.52
2023-03-21T23:50:19.967Z,1.40
2023-03-21T23:53:24.104Z,1.60
2023-03-21T23:56:29.487Z,1.40
2023-03-21T23:59:33.666Z,1.57
